Nearby METAR Reports

 

YMEN - Melbourne/Essend, Australia
Distance from station: WNW 96km
Updated: 21/04/2018 19:30
Clear
Clear
 Wind from SW
Wind: SW 9 km/h
Temperature: 15°C
Dew Point: 15°C
Humidity: 100%
Barometer: 1021 hPa
Clouds: Clear
Visibility: 6 km
2018/04/21 09:30 YMEN 210930Z AUTO 23005KT 6000 // NCD 15/15 Q1021
YMML - Melbourne Intl A, Australia
Distance from station: WNW 106km
Updated: 21/04/2018 19:00
Partly cloudy
Partly cloudy
 Wind from SW
Wind: SW 6 km/h
Temperature: 16°C
Dew Point: 12°C
Humidity: 77%
Barometer: 1021 hPa
Clouds: Partly cloudy
Visibility: 9 km
2018/04/21 09:00 YMML 210900Z 23003KT 9000 NSC 16/12 Q1021
YMAV - Avalon Airport, Australia
Distance from station: W 121km
Updated: 21/04/2018 19:00
Partly cloudy
Partly cloudy
 Wind from SSW
Wind: SSW 6 km/h
Temperature: 15°C
Dew Point: 13°C
Humidity: 88%
Barometer: 1021 hPa
Clouds: Partly cloudy
Cloud details: Partly cloudy 3048 m
2018/04/21 09:00 YMAV 210900Z AUTO 20003KT //// // SCT100 15/13 Q1021
 
YWGT - Wangaratta Arp, Australia
Distance from station: N 196km
Updated: 21/04/2018 19:00
Clear
Clear
 Wind from WSW
Wind: WSW 6 km/h
Temperature: 15°C
Dew Point: 8°C
Humidity: 63%
Barometer: 1019 hPa
Clouds: Clear
Visibility: 10 km
2018/04/21 09:00 YWGT 210900Z AUTO 25003KT 9999 // NCD 15/08 Q1019
YMAY - Albury Airport, Australia
Distance from station: NNE 250km
Updated: 21/04/2018 19:00
Clear
Clear
 Wind from WNW
Wind: WNW 4 km/h
Temperature: 19°C
Dew Point: 11°C
Humidity: 60%
Barometer: 1019 hPa
Clouds: Clear
Visibility: 10 km
2018/04/21 09:00 YMAY 210900Z AUTO 30002KT 9999 // NCD 19/11 Q1019
YCOM - Cooma Snowy Mtns, Australia
Distance from station: NE 343km
Updated: 21/04/2018 19:00
Clear
Clear
 Wind from NNE
Wind: NNE 15 km/h
Temperature: 11°C
Dew Point: 10°C
Humidity: 94%
Barometer: 1024 hPa
Clouds: Clear
Visibility: 10 km
2018/04/21 09:00 YCOM 210900Z AUTO 03008KT 9999 // NCD 11/10 Q1024
 
YSWG - Wagga Wagga(Cv/M, Australia
Distance from station: NNE 364km
Updated: 21/04/2018 19:00
Clear
Clear
 Wind from ENE
Wind: ENE 7 km/h
Temperature: 19°C
Dew Point: 8°C
Humidity: 49%
Barometer: 1019 hPa
Clouds: Clear
Visibility: 10 km
2018/04/21 09:00 YSWG 210900Z AUTO 07004KT 9999 // NCD 19/08 Q1019
YMER - Merimbula Arpt, Australia
Distance from station: ENE 382km
Updated: 21/04/2018 19:00
Overcast
Overcast
 Wind from NE
Wind: NE 11 km/h
Temperature: 18°C
Dew Point: 13°C
Humidity: 73%
Barometer: 1023 hPa
Clouds: Overcast
Visibility: 10 km
Cloud details: Overcast 1006 m
2018/04/21 09:00 YMER 210900Z AUTO 04006KT 9999 // OVC033 18/13 Q1023
YNAR - Narrandera, Australia
Distance from station: N 388km
Updated: 21/04/2018 19:00

 Wind from S
Wind: S 6 km/h
Temperature: 21°C
Dew Point: 5°C
Humidity: 35%
Barometer: 1019 hPa
2018/04/21 09:00 YNAR 210900Z AUTO 18003KT //// // ////// 21/05 Q1019
 
YMLT - Launceston Airpo, Australia
Distance from station: SSE 392km
Updated: 21/04/2018 19:00
Clear
Clear
 Wind from N
Wind: N 15 km/h
Temperature: 12°C
Dew Point: 10°C
Humidity: 88%
Barometer: 1022 hPa
Clouds: Clear
Visibility: 10 km
2018/04/21 09:00 YMLT 210900Z AUTO 35008KT 9999 // NCD 12/10 Q1022
YGTH - Griffith Arpt, Australia
Distance from station: N 434km
Updated: 21/04/2018 19:00
Clear
Clear
 Wind from S
Wind: S 11 km/h
Temperature: 23°C
Dew Point: 4°C
Humidity: 29%
Barometer: 1018 hPa
Clouds: Clear
Visibility: 10 km
2018/04/21 09:00 YGTH 210900Z AUTO 18006KT 9999 // NCD 23/04 Q1018
YSCB - Canberra (civ/Mi, Australia
Distance from station: NE 434km
Updated: 21/04/2018 19:00
Partly cloudy
Partly cloudy
 Wind from E
Wind: E 24 km/h
Temperature: 16°C
Dew Point: 12°C
Humidity: 77%
Barometer: 1022 hPa
Clouds: Partly cloudy
Visibility: 10 km
Cloud details: Partly cloudy 3048 m
2018/04/21 09:00 YSCB 210900Z AUTO 09013KT 9999 // SCT100 16/12 Q1022
 
YMTG - Mount Gambier, Australia
Distance from station: W 447km
Updated: 21/04/2018 19:30
Overcast
Overcast
 Wind from SSW
Wind: SSW 17 km/h
Temperature: 16°C
Dew Point: 15°C
Humidity: 94%
Barometer: 1022 hPa
Clouds: Overcast
Visibility: 10 km
Cloud details: Overcast 152 m
2018/04/21 09:30 YMTG 210930Z AUTO 20009KT 9999 // OVC005 16/15 Q1022
YMHB - Hobart/Tasmania, Australia
Distance from station: SSE 538km
Updated: 21/04/2018 19:00
Clear
Clear
 Wind from calm
Wind: Calm
Temperature: 15°C
Dew Point: 12°C
Humidity: 82%
Barometer: 1021 hPa
Summary: Clear
Visibility: greater than 10 km
2018/04/21 09:00 YMHB 210900Z 00000KT CAVOK 15/12 Q1021
YSNW - Nowra (aus-Navy), Australia
Distance from station: NE 547km
Updated: 21/04/2018 19:00
Overcast
Overcast
 Wind from calm
Wind: Calm
Temperature: 18°C
Dew Point: 15°C
Humidity: 83%
Barometer: 1023 hPa
Clouds: Overcast
Visibility: 10 km
Cloud details: Mostly cloudy 610 m
Overcast 1280 m
2018/04/21 09:00 YSNW 210900Z AUTO 00000KT 9999 // BKN020 OVC042 18/15 Q1023
 
YMIA - Mildura Arpt, Australia
Distance from station: NW 551km
Updated: 21/04/2018 19:00
Clear
Clear
 Wind from calm
Wind: Calm
Temperature: 23°C
Dew Point: 7°C
Humidity: 36%
Barometer: 1019 hPa
Clouds: Clear
Visibility: 10 km
2018/04/21 09:00 YMIA 210900Z AUTO 00000KT 9999 // NCD 23/07 Q1019
YSSY - Sydney Intl Airp, Australia
Distance from station: NE 667km
Updated: 21/04/2018 19:00
Partly cloudy
Partly cloudy
 Wind from SE
Wind: SE 19 km/h
Temperature: 20°C
Dew Point: 15°C
Humidity: 73%
Barometer: 1022 hPa
Clouds: Partly cloudy
Visibility: 10 km
Cloud details: Few Clouds 762 m
Partly cloudy 1524 m
2018/04/21 09:00 YSSY 210900Z 13010KT 9999 FEW025 SCT050 20/15 Q1022 NOSIG
YSRI - Richmond (aus-Af, Australia
Distance from station: NE 671km
Updated: 21/04/2018 19:00
Overcast
Overcast
 Wind from E
Wind: E 9 km/h
Temperature: 20°C
Dew Point: 15°C
Humidity: 73%
Barometer: 1022 hPa
Clouds: Overcast
Visibility: 10 km
Cloud details: Mostly cloudy 762 m
Mostly cloudy 945 m
Overcast 1341 m
2018/04/21 09:00 YSRI 210900Z AUTO 09005KT 9999 // BKN025 BKN031 OVC044 20/15 Q1022
 
YSDU - Dubbo, Australia
Distance from station: NNE 704km
Updated: 21/04/2018 19:00
Overcast
Overcast
 Wind from ENE
Wind: ENE 9 km/h
Temperature: 21°C
Dew Point: 10°C
Humidity: 50%
Barometer: 1020 hPa
Clouds: Overcast
Visibility: 10 km
Cloud details: Overcast 3353 m
2018/04/21 09:00 YSDU 210900Z AUTO 07005KT 9999 // OVC110 21/10 Q1020
YMDG - Mudgee Arpt, Australia
Distance from station: NNE 708km
Updated: 21/04/2018 19:00
Clear
Clear
 Wind from SSE
Wind: SSE 7 km/h
Temperature: 17°C
Dew Point: 11°C
Humidity: 68%
Barometer: 1021 hPa
Clouds: Clear
Visibility: 10 km
2018/04/21 09:00 YMDG 210900Z AUTO 15004KT 9999 // NCD 17/11 Q1021